createdAt,value
2022-09-22T00:00:05.470Z,10.96
2022-09-22T00:02:37.402Z,10.97
2022-09-22T00:05:09.449Z,10.94
2022-09-22T00:07:41.381Z,10.89
2022-09-22T00:10:13.480Z,10.88
2022-09-22T00:12:47.298Z,10.86
2022-09-22T00:15:19.330Z,10.87
2022-09-22T00:17:51.312Z,10.87
2022-09-22T00:20:23.276Z,10.88
2022-09-22T00:22:55.512Z,10.88
2022-09-22T00:25:27.461Z,10.86
2022-09-22T00:27:59.373Z,10.87
2022-09-22T00:30:31.360Z,10.88
2022-09-22T00:33:03.294Z,10.89
2022-09-22T00:35:38.158Z,10.91
2022-09-22T00:38:10.436Z,10.90
2022-09-22T00:40:42.436Z,10.90
2022-09-22T00:43:17.985Z,10.90
2022-09-22T00:45:56.469Z,10.87
2022-09-22T00:48:33.440Z,10.82
2022-09-22T00:51:09.391Z,10.82
2022-09-22T00:53:42.309Z,10.82
2022-09-22T00:56:26.606Z,10.79
2022-09-22T00:59:08.344Z,10.75
2022-09-22T01:01:40.688Z,10.72
2022-09-22T01:04:13.050Z,10.70
2022-09-22T01:06:46.535Z,10.66
2022-09-22T01:09:18.484Z,10.66
2022-09-22T01:11:50.912Z,10.61
2022-09-22T01:14:58.137Z,10.58
2022-09-22T01:17:56.095Z,10.57
2022-09-22T01:20:55.518Z,10.55
2022-09-22T01:23:49.990Z,10.53
2022-09-22T01:26:44.869Z,10.49
2022-09-22T01:30:15.135Z,10.48
2022-09-22T01:33:13.802Z,10.47
2022-09-22T01:36:01.830Z,10.47
2022-09-22T01:38:55.314Z,10.46
2022-09-22T01:41:51.957Z,10.44
2022-09-22T01:44:37.174Z,10.44
2022-09-22T01:47:48.446Z,10.43
2022-09-22T01:50:40.527Z,10.40
2022-09-22T01:53:16.099Z,10.39
2022-09-22T01:55:55.035Z,10.37
2022-09-22T01:58:32.705Z,10.34
2022-09-22T02:01:15.857Z,10.31
2022-09-22T02:04:00.507Z,10.29
2022-09-22T02:06:40.242Z,10.28
2022-09-22T02:09:17.403Z,10.24
2022-09-22T02:11:49.616Z,10.21
2022-09-22T02:14:21.605Z,10.20
2022-09-22T02:16:54.727Z,10.21
2022-09-22T02:19:41.168Z,10.19
2022-09-22T02:22:13.360Z,10.18
2022-09-22T02:24:47.225Z,10.16
2022-09-22T02:27:36.758Z,10.15
2022-09-22T02:30:11.945Z,10.11
2022-09-22T02:32:49.173Z,10.12
2022-09-22T02:35:22.724Z,10.10
2022-09-22T02:38:10.481Z,10.09
2022-09-22T02:41:06.601Z,10.08
2022-09-22T02:43:52.278Z,10.10
2022-09-22T02:46:27.410Z,10.13
2022-09-22T02:49:12.171Z,10.14
2022-09-22T02:51:46.650Z,10.14
2022-09-22T02:54:18.633Z,10.16
2022-09-22T02:56:54.262Z,10.17
2022-09-22T02:59:26.182Z,10.19
2022-09-22T03:01:58.157Z,10.19
2022-09-22T03:04:30.297Z,10.17
2022-09-22T03:07:02.427Z,10.16
2022-09-22T03:09:34.429Z,10.12
2022-09-22T03:12:06.664Z,10.08
2022-09-22T03:14:38.580Z,10.07
2022-09-22T03:17:10.611Z,10.06
2022-09-22T03:19:53.437Z,10.02
2022-09-22T03:22:25.451Z,9.95
2022-09-22T03:24:57.334Z,9.90
2022-09-22T03:27:29.317Z,9.88
2022-09-22T03:30:01.269Z,9.91
2022-09-22T03:32:33.820Z,9.92
2022-09-22T03:35:07.228Z,9.96
2022-09-22T03:37:39.113Z,9.97
2022-09-22T03:40:11.316Z,9.95
2022-09-22T03:42:44.363Z,9.87
2022-09-22T03:45:16.692Z,9.89
2022-09-22T03:47:48.692Z,9.88
2022-09-22T03:50:21.918Z,9.90
2022-09-22T03:52:53.878Z,9.91
2022-09-22T03:55:25.902Z,9.88
2022-09-22T03:57:57.797Z,9.90
2022-09-22T04:00:29.831Z,9.88
2022-09-22T04:03:01.728Z,9.90
2022-09-22T04:05:33.721Z,9.87
2022-09-22T04:08:05.670Z,9.84
2022-09-22T04:10:37.627Z,9.82
2022-09-22T04:13:09.562Z,9.75
2022-09-22T04:15:42.471Z,9.73
2022-09-22T04:18:14.656Z,9.64
2022-09-22T04:20:46.591Z,9.65
2022-09-22T04:23:18.518Z,9.59
2022-09-22T04:25:50.423Z,9.59
2022-09-22T04:28:22.606Z,9.64
2022-09-22T04:30:55.419Z,9.67
2022-09-22T04:33:27.409Z,9.71
2022-09-22T04:35:59.762Z,9.71
2022-09-22T04:38:31.835Z,9.63
2022-09-22T04:41:03.798Z,9.60
2022-09-22T04:43:35.725Z,9.65
2022-09-22T04:46:07.700Z,9.66
2022-09-22T04:48:39.624Z,9.65
2022-09-22T04:51:11.591Z,9.63
2022-09-22T04:53:43.546Z,9.64
2022-09-22T04:56:16.045Z,9.53
2022-09-22T04:58:48.010Z,9.48
2022-09-22T05:01:20.103Z,9.52
2022-09-22T05:03:54.023Z,9.53
2022-09-22T05:06:26.462Z,9.49
2022-09-22T05:08:58.729Z,9.51
2022-09-22T05:11:31.386Z,9.51
2022-09-22T05:14:03.352Z,9.53
2022-09-22T05:16:35.492Z,9.49
2022-09-22T05:19:09.775Z,9.45
2022-09-22T05:21:41.817Z,9.42
2022-09-22T05:24:13.842Z,9.37
2022-09-22T05:26:45.732Z,9.37
2022-09-22T05:29:18.386Z,9.33
2022-09-22T05:31:50.395Z,9.29
2022-09-22T05:34:22.585Z,9.34
2022-09-22T05:36:54.548Z,9.37
2022-09-22T05:39:26.462Z,9.37
2022-09-22T05:41:58.425Z,9.35
2022-09-22T05:44:30.397Z,9.39
2022-09-22T05:47:02.856Z,9.41
2022-09-22T05:49:34.752Z,9.33
2022-09-22T05:52:06.671Z,9.24
2022-09-22T05:54:38.565Z,9.29
2022-09-22T05:57:10.571Z,9.40
2022-09-22T05:59:42.600Z,9.48
2022-09-22T06:02:25.551Z,9.50
2022-09-22T06:04:58.513Z,9.50
2022-09-22T06:07:30.438Z,9.56
2022-09-22T06:10:02.341Z,9.60
2022-09-22T06:12:34.274Z,9.58
2022-09-22T06:15:06.993Z,9.54
2022-09-22T06:17:38.981Z,9.61
2022-09-22T06:20:10.888Z,9.58
2022-09-22T06:22:45.085Z,9.46
2022-09-22T06:25:17.344Z,9.46
2022-09-22T06:28:05.338Z,9.53
2022-09-22T06:30:41.321Z,9.52
2022-09-22T06:33:13.341Z,9.64
2022-09-22T06:35:46.271Z,9.72
2022-09-22T06:38:18.387Z,9.83
2022-09-22T06:40:51.393Z,9.84
2022-09-22T06:43:23.393Z,9.90
2022-09-22T06:46:00.252Z,9.95
2022-09-22T06:48:32.343Z,10.11
2022-09-22T06:51:04.400Z,10.14
2022-09-22T06:53:36.347Z,10.26
2022-09-22T06:56:09.044Z,10.36
2022-09-22T06:59:08.406Z,10.49
2022-09-22T07:01:34.600Z,10.72
2022-09-22T07:04:07.299Z,10.95
2022-09-22T07:06:40.685Z,11.18
2022-09-22T07:09:12.813Z,11.31
2022-09-22T07:11:45.187Z,11.65
2022-09-22T07:14:19.068Z,11.86
2022-09-22T07:16:52.670Z,12.12
2022-09-22T07:19:24.570Z,12.40
2022-09-22T07:21:56.607Z,12.57
2022-09-22T07:24:28.504Z,12.73
2022-09-22T07:27:04.327Z,12.57
2022-09-22T07:29:39.664Z,12.80
2022-09-22T07:32:11.657Z,12.96
2022-09-22T07:34:43.878Z,13.19
2022-09-22T07:37:16.102Z,13.37
2022-09-22T07:39:48.250Z,13.67
2022-09-22T07:42:20.442Z,13.91
2022-09-22T07:45:10.858Z,13.76
2022-09-22T07:48:04.439Z,13.87
2022-09-22T07:50:36.422Z,14.09
2022-09-22T07:53:08.343Z,14.25
2022-09-22T07:55:40.681Z,14.40
2022-09-22T07:58:17.156Z,14.58
2022-09-22T08:00:49.442Z,14.86
2022-09-22T08:03:21.450Z,15.05
2022-09-22T08:06:06.285Z,15.23
2022-09-22T08:08:43.565Z,15.65
2022-09-22T08:11:18.707Z,15.89
2022-09-22T08:14:00.759Z,16.04
2022-09-22T08:16:40.004Z,16.45
2022-09-22T08:19:13.336Z,16.75
2022-09-22T08:21:49.294Z,16.82
2022-09-22T08:24:22.887Z,17.22
2022-09-22T08:26:58.134Z,17.42
2022-09-22T08:29:31.532Z,17.38
2022-09-22T08:32:03.482Z,17.61
2022-09-22T08:34:35.417Z,17.92
2022-09-22T08:37:07.347Z,18.06
2022-09-22T08:39:39.510Z,18.58
2022-09-22T08:42:22.926Z,18.69
2022-09-22T08:45:29.627Z,19.11
2022-09-22T08:48:39.153Z,19.16
2022-09-22T08:51:43.163Z,19.32
2022-09-22T08:54:17.162Z,18.71
2022-09-22T08:57:21.407Z,18.36
2022-09-22T09:00:05.856Z,18.08
2022-09-22T09:02:42.593Z,17.86
2022-09-22T09:05:39.210Z,17.67
2022-09-22T09:08:19.911Z,17.21
2022-09-22T09:11:29.897Z,17.15
2022-09-22T09:14:26.306Z,17.15
2022-09-22T09:17:15.190Z,17.15
2022-09-22T09:20:02.189Z,17.32
2022-09-22T09:22:45.016Z,17.34
2022-09-22T09:25:27.996Z,17.50
2022-09-22T09:28:07.118Z,17.67
2022-09-22T09:30:52.873Z,18.82
2022-09-22T09:33:46.171Z,21.17
2022-09-22T09:36:22.882Z,23.98
2022-09-22T09:38:58.206Z,25.00
2022-09-22T09:41:32.706Z,24.01
2022-09-22T09:44:05.449Z,22.86
2022-09-22T09:46:50.376Z,21.92
2022-09-22T09:49:24.199Z,21.18
2022-09-22T09:52:02.159Z,20.54
2022-09-22T09:54:34.130Z,20.20
2022-09-22T09:57:13.977Z,19.52
2022-09-22T10:00:07.162Z,19.51
2022-09-22T10:02:51.012Z,19.62
2022-09-22T10:05:26.857Z,20.26
2022-09-22T10:08:04.461Z,21.88
2022-09-22T10:10:41.201Z,24.49
2022-09-22T10:13:16.025Z,26.83
2022-09-22T10:16:04.339Z,28.43
2022-09-22T10:18:40.526Z,29.34
2022-09-22T10:21:18.544Z,28.05
2022-09-22T10:23:56.494Z,26.79
2022-09-22T10:26:31.464Z,27.19
2022-09-22T10:29:21.200Z,28.26
2022-09-22T10:32:12.890Z,28.06
2022-09-22T10:34:54.854Z,28.37
2022-09-22T10:37:29.639Z,27.82
2022-09-22T10:40:03.861Z,26.01
2022-09-22T10:42:40.344Z,24.11
2022-09-22T10:45:15.724Z,23.30
2022-09-22T10:48:16.484Z,22.74
2022-09-22T10:51:09.316Z,21.62
2022-09-22T10:53:59.193Z,20.87
2022-09-22T10:56:39.779Z,20.43
2022-09-22T10:59:32.714Z,20.05
2022-09-22T11:02:41.443Z,19.57
2022-09-22T11:05:43.843Z,20.06
2022-09-22T11:08:38.833Z,21.23
2022-09-22T11:11:41.799Z,21.12
2022-09-22T11:14:32.591Z,20.81
2022-09-22T11:17:32.372Z,20.56
2022-09-22T11:20:25.545Z,22.63
2022-09-22T11:23:04.563Z,25.87
2022-09-22T11:25:51.729Z,28.30
2022-09-22T11:29:00.749Z,28.94
2022-09-22T11:31:51.172Z,30.22
2022-09-22T11:34:48.530Z,30.26
2022-09-22T11:37:50.418Z,28.34
2022-09-22T11:41:15.971Z,25.95
2022-09-22T11:44:40.989Z,26.33
2022-09-22T11:47:16.381Z,26.80
2022-09-22T11:50:11.961Z,25.10
2022-09-22T11:53:24.273Z,23.82
2022-09-22T11:56:17.156Z,23.75
2022-09-22T11:58:53.297Z,25.94
2022-09-22T12:01:31.081Z,27.14
2022-09-22T12:04:30.661Z,28.41
2022-09-22T12:07:07.380Z,28.30
2022-09-22T12:10:00.791Z,27.85
2022-09-22T12:12:33.515Z,26.66
2022-09-22T12:15:29.649Z,24.93
2022-09-22T12:18:26.920Z,23.18
2022-09-22T12:21:18.609Z,22.63
2022-09-22T12:23:52.283Z,21.95
2022-09-22T12:26:45.277Z,21.09
2022-09-22T12:29:17.109Z,20.77
2022-09-22T12:31:52.271Z,20.73
2022-09-22T12:34:39.290Z,21.30
2022-09-22T12:37:40.776Z,20.99
2022-09-22T12:40:27.990Z,20.42
2022-09-22T12:43:00.085Z,20.16
2022-09-22T12:45:41.324Z,19.80
2022-09-22T12:48:37.230Z,19.51
2022-09-22T12:51:24.523Z,19.26
2022-09-22T12:54:24.243Z,19.23
2022-09-22T12:57:00.252Z,19.24
2022-09-22T12:59:38.146Z,19.71
2022-09-22T13:02:18.860Z,20.16
2022-09-22T13:05:00.195Z,20.86
2022-09-22T13:07:37.713Z,21.59
2022-09-22T13:10:24.805Z,21.68
2022-09-22T13:13:03.023Z,21.12
2022-09-22T13:15:47.207Z,20.52
2022-09-22T13:19:06.989Z,19.74
2022-09-22T13:21:40.275Z,19.56
2022-09-22T13:24:19.569Z,19.44
2022-09-22T13:27:04.287Z,19.63
2022-09-22T13:29:36.529Z,20.18
2022-09-22T13:32:26.728Z,20.53
2022-09-22T13:34:58.692Z,20.71
2022-09-22T13:37:31.401Z,20.92
2022-09-22T13:40:03.460Z,20.83
2022-09-22T13:42:37.091Z,21.10
2022-09-22T13:45:24.089Z,21.24
2022-09-22T13:48:16.848Z,21.05
2022-09-22T13:50:55.782Z,20.86
2022-09-22T13:53:27.830Z,20.48
2022-09-22T13:56:00.274Z,20.50
2022-09-22T13:58:43.274Z,20.38
2022-09-22T14:01:19.867Z,20.55
2022-09-22T14:03:53.500Z,20.44
2022-09-22T14:06:31.193Z,20.32
2022-09-22T14:09:04.043Z,20.23
2022-09-22T14:11:37.204Z,19.98
2022-09-22T14:14:23.682Z,19.80
2022-09-22T14:17:26.769Z,19.81
2022-09-22T14:20:03.714Z,19.65
2022-09-22T14:22:42.365Z,19.66
2022-09-22T14:25:18.959Z,19.57
2022-09-22T14:27:55.516Z,19.20
2022-09-22T14:30:30.347Z,19.22
2022-09-22T14:33:04.177Z,19.23
2022-09-22T14:35:37.451Z,19.18
2022-09-22T14:38:20.853Z,19.13
2022-09-22T14:40:59.237Z,19.25
2022-09-22T14:43:42.507Z,19.40
2022-09-22T14:46:33.729Z,19.58
2022-09-22T14:49:43.048Z,19.65
2022-09-22T14:52:33.426Z,19.82
2022-09-22T14:55:14.684Z,19.90
2022-09-22T14:57:49.370Z,20.06
2022-09-22T15:00:40.022Z,19.95
2022-09-22T15:03:28.429Z,19.97
2022-09-22T15:06:13.064Z,20.06
2022-09-22T15:08:51.459Z,19.98
2022-09-22T15:11:54.908Z,20.02
2022-09-22T15:14:41.795Z,19.97
2022-09-22T15:17:57.079Z,20.05
2022-09-22T15:20:46.648Z,19.98
2022-09-22T15:23:27.558Z,19.87
2022-09-22T15:26:04.172Z,19.83
2022-09-22T15:28:38.052Z,19.77
2022-09-22T15:31:20.132Z,19.65
2022-09-22T15:33:56.332Z,19.70
2022-09-22T15:36:33.068Z,19.62
2022-09-22T15:39:24.328Z,19.48
2022-09-22T15:41:56.462Z,19.51
2022-09-22T15:44:28.577Z,19.57
2022-09-22T15:47:01.458Z,19.47
2022-09-22T15:49:35.191Z,19.33
2022-09-22T15:52:07.263Z,19.24
2022-09-22T15:54:39.259Z,19.07
2022-09-22T15:57:11.361Z,18.89
2022-09-22T15:59:43.440Z,18.81
2022-09-22T16:02:16.207Z,18.66
2022-09-22T16:04:48.207Z,18.61
2022-09-22T16:07:21.012Z,18.62
2022-09-22T16:09:53.268Z,18.53
2022-09-22T16:12:26.042Z,18.45
2022-09-22T16:14:58.306Z,18.52
2022-09-22T16:17:30.479Z,18.46
2022-09-22T16:20:04.654Z,18.47
2022-09-22T16:22:36.823Z,18.39
2022-09-22T16:25:11.504Z,18.34
2022-09-22T16:27:43.796Z,18.29
2022-09-22T16:30:17.137Z,18.19
2022-09-22T16:32:49.573Z,18.18
2022-09-22T16:35:25.062Z,18.13
2022-09-22T16:37:57.559Z,18.04
2022-09-22T16:40:33.490Z,17.98
2022-09-22T16:43:07.808Z,17.95
2022-09-22T16:45:59.032Z,17.85
2022-09-22T16:48:33.003Z,17.73
2022-09-22T16:51:05.729Z,17.55
2022-09-22T16:53:39.044Z,17.50
2022-09-22T16:56:11.243Z,17.41
2022-09-22T16:58:43.439Z,17.32
2022-09-22T17:01:19.642Z,17.26
2022-09-22T17:03:52.980Z,17.23
2022-09-22T17:06:27.492Z,17.20
2022-09-22T17:08:59.991Z,17.16
2022-09-22T17:11:36.640Z,17.13
2022-09-22T17:14:13.920Z,17.04
2022-09-22T17:16:49.990Z,16.95
2022-09-22T17:19:26.404Z,16.89
2022-09-22T17:21:59.296Z,16.80
2022-09-22T17:24:31.302Z,16.72
2022-09-22T17:27:03.266Z,16.66
2022-09-22T17:29:35.265Z,16.58
2022-09-22T17:32:08.167Z,16.52
2022-09-22T17:34:41.255Z,16.43
2022-09-22T17:37:15.722Z,16.35
2022-09-22T17:39:51.298Z,16.28
2022-09-22T17:42:24.391Z,16.23
2022-09-22T17:44:56.349Z,16.16
2022-09-22T17:47:46.726Z,16.11
2022-09-22T17:50:37.272Z,15.96
2022-09-22T17:53:28.115Z,15.85
2022-09-22T17:56:05.178Z,15.80
2022-09-22T17:58:37.140Z,15.78
2022-09-22T18:01:09.107Z,15.78
2022-09-22T18:03:45.189Z,15.72
2022-09-22T18:06:19.246Z,15.68
2022-09-22T18:08:51.967Z,15.64
2022-09-22T18:11:27.769Z,15.66
2022-09-22T18:14:00.115Z,15.65
2022-09-22T18:16:33.427Z,15.64
2022-09-22T18:19:06.795Z,15.62
2022-09-22T18:21:39.526Z,15.58
2022-09-22T18:24:18.829Z,15.50
2022-09-22T18:26:50.871Z,15.43
2022-09-22T18:29:22.806Z,15.39
2022-09-22T18:31:59.027Z,15.33
2022-09-22T18:34:32.045Z,15.31
2022-09-22T18:37:05.002Z,15.26
2022-09-22T18:39:40.798Z,15.21
2022-09-22T18:42:13.938Z,15.16
2022-09-22T18:44:47.320Z,15.13
2022-09-22T18:47:21.326Z,15.10
2022-09-22T18:49:53.281Z,15.02
2022-09-22T18:52:25.733Z,14.97
2022-09-22T18:54:59.014Z,14.92
2022-09-22T18:57:31.089Z,14.86
2022-09-22T19:00:04.417Z,14.79
2022-09-22T19:02:36.443Z,14.73
2022-09-22T19:05:09.068Z,14.67
2022-09-22T19:07:43.932Z,14.64
2022-09-22T19:10:22.451Z,14.58
2022-09-22T19:12:54.675Z,14.54
2022-09-22T19:15:27.162Z,14.51
2022-09-22T19:17:59.108Z,14.45
2022-09-22T19:20:31.370Z,14.40
2022-09-22T19:23:03.513Z,14.35
2022-09-22T19:25:35.544Z,14.32
2022-09-22T19:28:07.859Z,14.27
2022-09-22T19:30:40.316Z,14.23
2022-09-22T19:33:12.405Z,14.19
2022-09-22T19:35:44.358Z,14.16
2022-09-22T19:38:17.996Z,14.10
2022-09-22T19:40:49.999Z,14.09
2022-09-22T19:43:24.513Z,14.07
2022-09-22T19:45:56.514Z,14.03
2022-09-22T19:48:29.057Z,14.03
2022-09-22T19:51:03.404Z,14.02
2022-09-22T19:53:35.438Z,13.99
2022-09-22T19:56:07.359Z,13.95
2022-09-22T19:58:39.331Z,13.91
2022-09-22T20:01:35.254Z,13.86
2022-09-22T20:04:13.428Z,13.84
2022-09-22T20:06:48.909Z,13.84
2022-09-22T20:09:21.864Z,13.81
2022-09-22T20:11:53.966Z,13.74
2022-09-22T20:14:27.229Z,13.75
2022-09-22T20:17:03.858Z,13.74
2022-09-22T20:19:40.441Z,13.72
2022-09-22T20:22:26.305Z,13.69
2022-09-22T20:25:01.536Z,13.68
2022-09-22T20:27:35.979Z,13.68
2022-09-22T20:30:09.048Z,13.68
2022-09-22T20:32:41.499Z,13.66
2022-09-22T20:35:17.446Z,13.64
2022-09-22T20:37:49.677Z,13.62
2022-09-22T20:40:23.223Z,13.58
2022-09-22T20:42:55.460Z,13.54
2022-09-22T20:45:28.353Z,13.56
2022-09-22T20:48:00.742Z,13.57
2022-09-22T20:50:32.869Z,13.60
2022-09-22T20:53:06.155Z,13.63
2022-09-22T20:55:38.861Z,13.64
2022-09-22T20:58:12.793Z,13.61
2022-09-22T21:00:48.829Z,13.60
2022-09-22T21:03:20.946Z,13.58
2022-09-22T21:05:53.274Z,13.61
2022-09-22T21:08:44.042Z,13.60
2022-09-22T21:11:19.377Z,13.60
2022-09-22T21:13:58.871Z,13.59
2022-09-22T21:16:32.782Z,13.59
2022-09-22T21:19:05.368Z,13.55
2022-09-22T21:21:37.911Z,13.56
2022-09-22T21:24:11.118Z,13.51
2022-09-22T21:26:43.230Z,13.50
2022-09-22T21:29:15.230Z,13.46
2022-09-22T21:31:49.900Z,13.44
2022-09-22T21:34:21.957Z,13.42
2022-09-22T21:36:53.990Z,13.38
2022-09-22T21:39:25.978Z,13.36
2022-09-22T21:41:58.062Z,13.33
2022-09-22T21:44:30.154Z,13.31
2022-09-22T21:47:02.280Z,13.29
2022-09-22T21:49:34.298Z,13.27
2022-09-22T21:52:06.525Z,13.23
2022-09-22T21:54:38.473Z,13.19
2022-09-22T21:57:10.461Z,13.08
2022-09-22T21:59:42.375Z,13.08
2022-09-22T22:02:14.559Z,13.11
2022-09-22T22:04:46.613Z,13.06
2022-09-22T22:07:19.702Z,12.96
2022-09-22T22:09:52.035Z,13.00
2022-09-22T22:12:24.634Z,13.02
2022-09-22T22:14:57.194Z,13.01
2022-09-22T22:17:32.388Z,13.00
2022-09-22T22:20:04.766Z,13.00
2022-09-22T22:22:37.256Z,12.98
2022-09-22T22:25:18.503Z,12.96
2022-09-22T22:27:50.632Z,12.91
2022-09-22T22:30:22.767Z,12.90
2022-09-22T22:32:54.714Z,12.90
2022-09-22T22:35:27.235Z,12.85
2022-09-22T22:37:59.326Z,12.82
2022-09-22T22:40:32.194Z,12.80
2022-09-22T22:43:04.236Z,12.79
2022-09-22T22:45:36.151Z,12.76
2022-09-22T22:48:08.114Z,12.76
2022-09-22T22:50:40.388Z,12.74
2022-09-22T22:53:13.688Z,12.70
2022-09-22T22:56:00.508Z,12.68
2022-09-22T22:58:36.264Z,12.64
2022-09-22T23:01:17.881Z,12.62
2022-09-22T23:04:00.311Z,12.63
2022-09-22T23:06:44.039Z,12.60
2022-09-22T23:09:17.421Z,12.59
2022-09-22T23:11:49.545Z,12.56
2022-09-22T23:14:21.947Z,12.52
2022-09-22T23:16:54.002Z,12.47
2022-09-22T23:19:25.995Z,12.45
2022-09-22T23:21:59.137Z,12.42
2022-09-22T23:24:31.036Z,12.37
2022-09-22T23:27:02.959Z,12.36
2022-09-22T23:29:34.896Z,12.34
2022-09-22T23:32:06.897Z,12.30
2022-09-22T23:34:38.808Z,12.28
2022-09-22T23:37:10.727Z,12.24
2022-09-22T23:39:42.643Z,12.22
2022-09-22T23:42:14.542Z,12.18
2022-09-22T23:44:46.506Z,12.15
2022-09-22T23:47:18.497Z,12.13
2022-09-22T23:49:50.497Z,12.10
2022-09-22T23:52:22.549Z,12.10
2022-09-22T23:54:54.560Z,12.05
2022-09-22T23:57:26.478Z,12.02
2022-09-22T23:59:58.568Z,12.01
